Startpagina
METAR-TAF:

METAR-TAF

Vliegvelden :

Fort-de-France, Martinique

breedte: 14-36N, lengte: 061-00W, hoogte: 5 m

Actueel weer

Dit bericht is 35 minuten geleden gemaakt, om 13:30 UTC
Wind 12 kt uit het oostzuidoosten
Temperatuur 31°C
Vochtigheid 59%
Druk 1012 hPa
Zicht 10 km of meer
Verspreide wolken op 2800 ft

METAR: TFFF 191330Z AUTO 12012KT 9999 SCT028 31/22 Q1012 NOSIG

Tijdstip: 10:05 (14:05 UTC)

Verwachting

Dit bericht is 3 uur en het 5 minuten geleden gemaakt, om 11:00 UTC
Verwachting geldig van 19 om 12 UTC tot 20 om 12 UTC
Wind 2 kt uit variabele richting
Zicht 10 km of meer
Verspreide wolken op 2000 ft
Wijzigt naar
van 19 om 14 UTC tot 19 om 16 UTC
Wind 10 kt uit het oostzuidoosten

TAF: TFFF 191100Z 1912/2012 VRB02KT 9999 SCT020 BECMG 1914/1916 12010KT

Waarnemingen en weersverwachtingen van meer dan 4000 vliegvelden (METAR en TAF).

De beschikbare stations zijn de gele en rode punten op de kaart.

Ga met uw muis naar het station om de naam te zien.

Klik dan om waarnemingen en weersverwachtingen te zien.

kaart wijzigen: klik op de groene knoppen met een zwart kruis om in te zoomen, op de groene knop met een streepje om uit te zoomen of op de groene pijlen voor aangrenzende kaarten.


METAR-TAF: